Time;durP1;ratioP1;P1;durP2;ratioP2;P2;SDS_P1;SDS_P2;PMS_P1;PMS_P2;Temp;Humidity;BMP_temperature;BMP_pressure;BME280_temperature;BME280_humidity;BME280_pressure;Samples;Min_cycle;Max_cycle;Signal;HPM_P1;HPM_P2
2023/02/26 00:01:02;;;;;;;5.13;3.50;;;1.50;99.90;;;;;;5035292;28;20259;-74
2023/02/26 00:03:29;;;;;;;4.27;3.13;;;1.40;99.90;;;;;;5033371;28;20211;-74
2023/02/26 00:06:02;;;;;;;4.47;3.20;;;1.50;99.90;;;;;;5035462;28;20602;-77
2023/02/26 00:08:30;;;;;;;4.73;3.30;;;1.40;99.90;;;;;;5033917;28;20215;-76
2023/02/26 00:10:57;;;;;;;4.77;3.33;;;1.30;99.90;;;;;;5033939;28;20622;-77
2023/02/26 00:13:24;;;;;;;4.10;3.30;;;1.30;99.90;;;;;;5033981;28;20234;-74
2023/02/26 00:16:01;;;;;;;4.50;3.10;;;1.30;99.90;;;;;;5018541;28;20211;-76
2023/02/26 00:18:32;;;;;;;5.83;3.23;;;1.20;99.90;;;;;;5014102;28;20276;-74
2023/02/26 00:20:59;;;;;;;4.03;3.23;;;1.10;99.90;;;;;;5015012;28;20661;-78
2023/02/26 00:23:27;;;;;;;4.93;3.20;;;1.20;99.90;;;;;;5015592;28;20641;-75
2023/02/26 00:25:56;;;;;;;3.93;3.00;;;1.30;99.90;;;;;;5014074;28;20207;-75
2023/02/26 00:28:23;;;;;;;4.50;3.07;;;1.10;99.90;;;;;;5017100;28;20199;-77
2023/02/26 00:30:50;;;;;;;6.17;3.10;;;1.10;99.90;;;;;;5033914;28;20210;-78
2023/02/26 00:33:21;;;;;;;4.53;2.97;;;1.10;99.90;;;;;;5033713;28;20195;-78
2023/02/26 00:35:56;;;;;;;3.87;2.90;;;1.00;99.90;;;;;;5033104;28;20235;-75
2023/02/26 00:38:29;;;;;;;3.67;2.70;;;1.10;99.90;;;;;;5034577;28;20306;-78
2023/02/26 00:40:56;;;;;;;3.83;2.70;;;1.00;99.90;;;;;;5033422;28;20237;-76
2023/02/26 00:43:27;;;;;;;3.97;2.77;;;1.00;99.90;;;;;;5033668;28;20202;-79
2023/02/26 00:46:12;;;;;;;3.37;2.80;;;1.00;99.90;;;;;;5030248;28;20218;-75
2023/02/26 00:49:00;;;;;;;3.17;2.43;;;1.10;99.90;;;;;;5030326;28;20193;-77
2023/02/26 00:51:41;;;;;;;4.77;2.50;;;1.00;99.90;;;;;;5013607;28;20188;-78
2023/02/26 00:54:18;;;;;;;3.20;2.70;;;1.00;99.90;;;;;;5013421;28;20221;-72
2023/02/26 00:56:45;;;;;;;3.30;2.70;;;1.00;99.90;;;;;;5033104;28;20195;-72
2023/02/26 01:01:57;;;;;;;4.93;2.57;;;0.80;99.90;;;;;;3163150;26;20258;-76
2023/02/26 01:04:25;;;;;;;3.40;2.67;;;0.80;99.90;;;;;;5033015;28;20202;-78
2023/02/26 01:06:54;;;;;;;3.83;2.60;;;0.80;99.90;;;;;;5033089;28;20207;-73
2023/02/26 01:09:29;;;;;;;5.47;3.00;;;0.80;99.90;;;;;;5034005;28;20196;-73
2023/02/26 01:12:00;;;;;;;3.43;2.80;;;0.90;99.90;;;;;;5032961;28;20212;-78
2023/02/26 01:14:28;;;;;;;3.93;2.67;;;1.00;99.90;;;;;;5028892;28;20620;-71
2023/02/26 01:17:16;;;;;;;3.10;2.50;;;1.00;99.90;;;;;;5014067;28;20985;-81
2023/02/26 01:19:48;;;;;;;3.37;2.60;;;1.00;99.90;;;;;;5007132;28;20557;-79
2023/02/26 01:22:19;;;;;;;4.00;2.63;;;0.90;99.90;;;;;;5013235;28;20212;-77
2023/02/26 01:24:57;;;;;;;4.10;2.53;;;0.90;99.90;;;;;;5026669;28;20198;-80
2023/02/26 01:27:28;;;;;;;4.37;2.57;;;1.00;99.90;;;;;;5032904;28;20195;-78
2023/02/26 01:29:55;;;;;;;3.27;2.40;;;0.90;99.90;;;;;;5033883;28;20210;-75
2023/02/26 01:32:25;;;;;;;3.03;2.27;;;0.90;99.90;;;;;;5033427;28;20193;-81
2023/02/26 01:35:31;;;;;;;3.63;2.63;;;0.90;99.90;;;;;;5049198;28;20200;-81
2023/02/26 01:38:15;;;;;;;3.30;2.50;;;0.90;99.90;;;;;;5034577;28;20217;-81
2023/02/26 01:41:05;;;;;;;2.63;2.20;;;0.90;99.90;;;;;;5032957;28;20209;-83
2023/02/26 01:43:41;;;;;;;3.57;2.63;;;0.90;99.90;;;;;;5033106;28;20195;-84
2023/02/26 01:46:25;;;;;;;2.70;2.40;;;0.90;99.90;;;;;;5034192;28;20187;-83
2023/02/26 01:48:55;;;;;;;2.90;2.50;;;0.90;99.90;;;;;;5037293;28;20257;-84
2023/02/26 01:51:41;;;;;;;3.77;2.63;;;0.80;99.90;;;;;;5045277;28;20214;-85
2023/02/26 01:54:11;;;;;;;3.23;2.40;;;0.90;99.90;;;;;;5033345;28;20282;-78
2023/02/26 01:56:45;;;;;;;4.33;2.60;;;0.80;99.90;;;;;;5031814;28;20218;-78
2023/02/26 01:59:15;;;;;;;4.70;2.97;;;0.80;99.90;;;;;;5032119;28;20238;-78
2023/02/26 02:01:43;;;;;;;4.30;2.63;;;0.80;99.90;;;;;;4999984;28;20706;-83
2023/02/26 02:04:13;;;;;;;4.27;3.03;;;0.80;99.90;;;;;;5032182;28;20207;-77
2023/02/26 02:06:41;;;;;;;4.10;2.77;;;0.90;99.90;;;;;;5031622;28;20244;-78
2023/02/26 02:09:11;;;;;;;4.33;2.87;;;0.90;99.90;;;;;;5031253;28;20664;-77
2023/02/26 02:12:23;;;;;;;4.00;3.10;;;0.90;99.90;;;;;;5031934;28;20194;-76
2023/02/26 02:14:59;;;;;;;4.63;2.90;;;0.90;99.90;;;;;;5031390;28;20198;-78
2023/02/26 02:17:44;;;;;;;4.47;2.90;;;0.90;99.90;;;;;;5032905;28;20195;-79
2023/02/26 02:20:13;;;;;;;3.97;2.70;;;1.00;99.90;;;;;;5031555;28;20217;-79
2023/02/26 02:22:58;;;;;;;4.20;2.97;;;1.00;99.90;;;;;;5031913;28;20199;-78
2023/02/26 02:25:50;;;;;;;4.03;2.93;;;0.90;99.90;;;;;;5047911;28;20210;-78
2023/02/26 02:28:30;;;;;;;3.90;2.63;;;0.90;99.90;;;;;;5031673;28;20206;-77
2023/02/26 02:31:35;;;;;;;3.73;2.67;;;1.00;99.90;;;;;;5031534;28;20723;-73
2023/02/26 02:34:10;;;;;;;3.63;2.73;;;1.10;99.90;;;;;;4936499;29;20259;-82
2023/02/26 02:36:43;;;;;;;5.97;3.10;;;0.90;99.90;;;;;;4936022;29;20200;-76
2023/02/26 02:39:16;;;;;;;5.17;3.10;;;0.80;99.90;;;;;;4952175;29;20231;-76
2023/02/26 02:42:02;;;;;;;5.13;3.33;;;0.80;99.90;;;;;;4936288;29;20767;-80
2023/02/26 02:44:35;;;;;;;5.70;3.30;;;0.70;99.90;;;;;;4935620;29;20231;-79
2023/02/26 02:47:04;;;;;;;5.10;3.40;;;0.70;99.90;;;;;;4952204;29;20670;-77
2023/02/26 02:50:00;;;;;;;5.17;3.27;;;0.80;99.90;;;;;;4952484;29;20377;-81
2023/02/26 02:52:35;;;;;;;4.97;3.17;;;0.80;99.90;;;;;;4937119;29;20663;-80
2023/02/26 02:55:08;;;;;;;3.87;2.87;;;0.80;99.90;;;;;;4952175;28;20665;-78
2023/02/26 02:57:46;;;;;;;4.20;3.00;;;0.80;99.90;;;;;;4936232;29;20570;-79
2023/02/26 03:00:15;;;;;;;5.57;3.10;;;0.80;99.90;;;;;;4936304;29;20641;-79
2023/02/26 03:02:50;;;;;;;6.00;3.70;;;0.80;99.90;;;;;;4936489;29;20224;-76
2023/02/26 03:05:17;;;;;;;5.27;3.33;;;0.80;99.90;;;;;;4936060;29;20209;-77
2023/02/26 03:07:53;;;;;;;4.93;3.50;;;0.80;99.90;;;;;;4936314;29;20213;-79
2023/02/26 03:10:20;;;;;;;3.93;3.13;;;0.80;99.90;;;;;;5016290;28;20194;-77
2023/02/26 03:12:48;;;;;;;4.80;3.40;;;0.80;99.90;;;;;;5031207;28;20660;-77
2023/02/26 03:15:25;;;;;;;5.03;3.40;;;0.80;99.90;;;;;;5030160;28;20203;-81
2023/02/26 03:18:14;;;;;;;5.27;3.40;;;0.70;99.90;;;;;;5031300;28;20214;-79
2023/02/26 03:20:55;;;;;;;6.03;3.70;;;0.80;99.90;;;;;;5031034;28;20184;-78
2023/02/26 03:23:33;;;;;;;5.50;3.20;;;0.80;99.90;;;;;;5031240;28;20200;-83
2023/02/26 03:26:09;;;;;;;5.03;3.20;;;0.90;99.90;;;;;;5031941;28;20193;-81
2023/02/26 03:28:43;;;;;;;5.10;3.30;;;0.90;99.90;;;;;;5034410;28;20228;-81
2023/02/26 03:31:28;;;;;;;5.63;3.57;;;0.90;99.90;;;;;;5034738;28;20209;-84
2023/02/26 03:34:18;;;;;;;5.30;3.27;;;0.80;99.90;;;;;;5035653;28;20252;-82
2023/02/26 03:37:13;;;;;;;5.80;3.50;;;0.90;99.90;;;;;;5033064;28;20191;-83
2023/02/26 03:39:45;;;;;;;5.17;3.30;;;0.90;99.90;;;;;;5032900;28;20230;-88
2023/02/26 03:42:24;;;;;;;5.00;3.37;;;0.90;99.90;;;;;;5032735;28;20569;-87
2023/02/26 03:44:56;;;;;;;4.47;3.23;;;0.90;99.90;;;;;;5033027;28;20210;-87
2023/02/26 03:47:24;;;;;;;4.80;3.00;;;0.90;99.90;;;;;;5016261;28;20545;-78
2023/02/26 03:50:05;;;;;;;4.87;2.97;;;1.00;99.90;;;;;;5031719;28;20306;-75
2023/02/26 03:52:39;;;;;;;4.90;3.10;;;0.90;99.90;;;;;;5030740;28;20199;-78
2023/02/26 03:55:18;;;;;;;4.23;2.77;;;0.90;99.90;;;;;;5030653;28;20209;-79
2023/02/26 03:57:45;;;;;;;4.87;2.90;;;0.80;99.90;;;;;;5034526;28;20582;-80
2023/02/26 04:00:13;;;;;;;4.70;2.53;;;0.90;99.90;;;;;;5034350;28;20211;-82
2023/02/26 04:03:02;;;;;;;3.53;2.53;;;0.80;99.90;;;;;;5036062;28;20223;-82
2023/02/26 04:05:34;;;;;;;4.10;2.30;;;0.90;99.90;;;;;;5035769;28;20237;-87
2023/02/26 04:08:01;;;;;;;3.27;2.30;;;0.80;99.90;;;;;;5035630;28;20206;-81
2023/02/26 04:11:09;;;;;;;3.27;2.50;;;0.80;99.90;;;;;;5035100;28;20195;-78
2023/02/26 04:13:36;;;;;;;3.30;2.30;;;0.90;99.90;;;;;;5013343;28;20232;-78
2023/02/26 04:16:04;;;;;;;3.03;2.20;;;0.90;99.90;;;;;;4980186;28;20201;-85
2023/02/26 04:18:31;;;;;;;3.30;2.03;;;0.90;99.90;;;;;;4994429;28;20335;-81
2023/02/26 04:20:58;;;;;;;3.20;2.20;;;0.90;99.90;;;;;;4993984;28;20227;-83
2023/02/26 04:23:25;;;;;;;2.43;1.93;;;0.80;99.90;;;;;;4993769;28;20212;-83
2023/02/26 04:25:52;;;;;;;3.17;2.20;;;0.80;99.90;;;;;;5011221;28;20207;-81
2023/02/26 04:28:20;;;;;;;3.53;2.30;;;0.90;99.90;;;;;;5013348;28;20242;-83
2023/02/26 04:30:47;;;;;;;3.20;2.10;;;0.90;99.90;;;;;;4996979;28;20204;-82
2023/02/26 04:33:15;;;;;;;2.90;2.03;;;0.90;99.90;;;;;;5013438;28;20202;-81
2023/02/26 04:35:42;;;;;;;3.33;2.10;;;0.90;99.90;;;;;;5013239;28;20621;-84
2023/02/26 04:38:09;;;;;;;3.30;2.17;;;1.00;99.90;;;;;;4996296;28;20224;-80
2023/02/26 04:40:36;;;;;;;3.03;2.10;;;0.90;99.90;;;;;;5012744;28;20195;-80
2023/02/26 04:43:03;;;;;;;3.37;1.93;;;0.90;99.90;;;;;;5022928;28;20207;-77
2023/02/26 04:45:29;;;;;;;2.43;2.00;;;0.80;99.90;;;;;;4993930;28;20210;-84
2023/02/26 04:47:56;;;;;;;3.00;2.10;;;0.80;99.90;;;;;;5000453;28;20203;-79
2023/02/26 04:50:23;;;;;;;2.60;2.00;;;0.80;99.90;;;;;;5055828;28;20218;-79
2023/02/26 04:52:50;;;;;;;2.67;2.10;;;0.80;99.90;;;;;;5049609;28;20194;-80
2023/02/26 04:55:17;;;;;;;3.23;2.07;;;0.70;99.90;;;;;;5034315;28;20198;-82
2023/02/26 04:57:44;;;;;;;3.10;2.10;;;0.70;99.90;;;;;;5033699;28;20202;-78
2023/02/26 05:00:12;;;;;;;2.57;1.80;;;0.80;99.90;;;;;;5032013;28;20223;-78
2023/02/26 05:02:39;;;;;;;2.87;1.90;;;0.80;99.90;;;;;;5016249;28;20285;-77
2023/02/26 05:05:06;;;;;;;2.97;1.90;;;0.70;99.90;;;;;;5034572;28;20200;-79
2023/02/26 05:07:32;;;;;;;2.67;1.90;;;0.70;99.90;;;;;;5032369;28;20196;-79
2023/02/26 05:09:59;;;;;;;2.23;1.70;;;0.70;99.90;;;;;;5033455;28;20270;-80
2023/02/26 05:12:26;;;;;;;2.90;1.70;;;0.70;99.90;;;;;;5033078;28;20213;-74
2023/02/26 05:14:53;;;;;;;2.57;1.70;;;0.60;99.90;;;;;;5032485;28;20223;-73
2023/02/26 05:17:20;;;;;;;2.17;1.80;;;0.60;99.90;;;;;;5032278;28;20203;-78
2023/02/26 05:19:47;;;;;;;2.00;1.80;;;0.60;99.90;;;;;;5032308;28;20238;-76
2023/02/26 05:22:14;;;;;;;4.20;2.17;;;0.60;99.90;;;;;;5032373;28;20202;-78
2023/02/26 05:24:41;;;;;;;2.57;1.87;;;0.60;99.90;;;;;;5034111;28;20191;-76
2023/02/26 05:27:08;;;;;;;2.63;2.03;;;0.60;99.90;;;;;;5032325;28;20560;-74
2023/02/26 05:29:34;;;;;;;3.30;1.97;;;0.60;99.90;;;;;;5032728;28;20210;-76
2023/02/26 05:32:02;;;;;;;2.87;1.90;;;0.50;99.90;;;;;;5032488;28;20196;-78
2023/02/26 05:34:29;;;;;;;2.67;2.00;;;0.60;99.90;;;;;;5015272;28;20199;-80
2023/02/26 05:36:56;;;;;;;2.60;2.10;;;0.50;99.90;;;;;;5033353;28;20225;-78
2023/02/26 05:39:22;;;;;;;2.17;1.77;;;0.50;99.90;;;;;;5032152;28;20245;-76
2023/02/26 05:41:50;;;;;;;2.73;1.80;;;0.50;99.90;;;;;;5029327;28;20641;-74
2023/02/26 05:44:17;;;;;;;3.27;2.00;;;0.60;99.90;;;;;;5028163;28;20271;-76
2023/02/26 05:46:44;;;;;;;3.53;2.10;;;0.60;99.90;;;;;;5032059;28;20640;-76
2023/02/26 05:49:11;;;;;;;4.20;2.30;;;0.60;99.90;;;;;;5031940;28;20207;-74
2023/02/26 05:51:38;;;;;;;3.33;2.60;;;0.70;99.90;;;;;;5015606;28;20660;-75
2023/02/26 05:54:05;;;;;;;4.00;2.37;;;0.70;99.90;;;;;;5031907;28;20206;-75
2023/02/26 05:56:32;;;;;;;4.40;2.50;;;0.80;99.90;;;;;;5031811;28;20205;-78
2023/02/26 05:58:59;;;;;;;3.20;2.20;;;0.70;99.90;;;;;;5015598;28;20215;-75
2023/02/26 06:01:29;;;;;;;3.67;2.50;;;0.70;99.90;;;;;;5032705;28;20233;-76
2023/02/26 06:03:56;;;;;;;3.53;2.40;;;0.70;99.90;;;;;;5033181;28;20301;-78
2023/02/26 06:06:24;;;;;;;3.07;2.40;;;0.60;99.90;;;;;;5031854;28;20202;-79
2023/02/26 06:08:51;;;;;;;4.17;2.50;;;0.60;99.90;;;;;;5018796;28;20215;-77
2023/02/26 06:11:18;;;;;;;3.37;2.10;;;0.50;99.90;;;;;;5013590;28;20193;-77
2023/02/26 06:13:45;;;;;;;2.37;1.87;;;0.40;99.90;;;;;;5013809;28;20192;-84
2023/02/26 06:16:12;;;;;;;3.30;1.90;;;0.20;99.90;;;;;;5030270;28;20211;-82
2023/02/26 06:18:39;;;;;;;1.90;1.70;;;0.10;99.90;;;;;;5031827;28;20267;-82
2023/02/26 06:21:06;;;;;;;3.13;1.80;;;0.00;99.90;;;;;;5033261;28;20187;-79
2023/02/26 06:23:33;;;;;;;2.83;1.90;;;0.00;99.90;;;;;;5031394;28;20211;-79
2023/02/26 06:26:00;;;;;;;2.17;1.70;;;0.00;99.90;;;;;;5031712;28;20199;-79
2023/02/26 06:28:27;;;;;;;4.93;2.07;;;0.00;99.90;;;;;;5031703;28;20588;-79
2023/02/26 06:30:54;;;;;;;3.33;1.90;;;0.00;99.90;;;;;;5031431;28;20194;-76
2023/02/26 06:33:22;;;;;;;3.03;1.73;;;0.00;99.90;;;;;;5031226;28;20336;-74
2023/02/26 06:35:54;;;;;;;2.50;1.77;;;0.00;99.90;;;;;;5031292;28;20197;-77
2023/02/26 06:38:25;;;;;;;2.43;1.77;;;0.00;99.90;;;;;;5031111;28;20206;-74
2023/02/26 06:40:56;;;;;;;2.77;1.83;;;-0.10;99.90;;;;;;5032707;28;20189;-69
2023/02/26 06:43:23;;;;;;;2.03;1.70;;;-0.10;99.90;;;;;;5032692;28;20193;-78
2023/02/26 06:45:50;;;;;;;2.60;1.73;;;0.00;99.90;;;;;;5031581;28;20242;-75
2023/02/26 06:48:17;;;;;;;1.93;1.73;;;0.00;99.90;;;;;;5032014;28;20680;-77
2023/02/26 06:50:44;;;;;;;3.37;1.87;;;-0.10;99.90;;;;;;5031746;28;20894;-81
2023/02/26 06:53:11;;;;;;;2.23;1.50;;;0.00;99.90;;;;;;5031434;28;20196;-81
2023/02/26 06:55:49;;;;;;;3.40;1.87;;;-0.10;99.90;;;;;;5031297;28;20218;-79
2023/02/26 06:58:16;;;;;;;3.47;1.93;;;-0.10;99.90;;;;;;5032601;28;20201;-75
2023/02/26 07:00:43;;;;;;;1.70;1.60;;;-0.10;99.90;;;;;;5031067;28;20226;-81
2023/02/26 07:03:16;;;;;;;2.47;1.90;;;0.00;99.90;;;;;;5028414;28;20190;-76
2023/02/26 07:05:44;;;;;;;2.30;1.80;;;0.00;99.90;;;;;;5021287;28;20255;-75
2023/02/26 07:08:12;;;;;;;2.60;1.80;;;0.10;99.90;;;;;;5026255;28;20190;-73
2023/02/26 07:10:40;;;;;;;2.83;2.03;;;0.20;99.90;;;;;;5012590;28;20536;-72
2023/02/26 07:13:07;;;;;;;2.03;1.80;;;0.00;99.90;;;;;;5011499;28;20192;-71
2023/02/26 07:15:34;;;;;;;3.47;1.83;;;0.00;99.90;;;;;;5025389;28;20199;-72
2023/02/26 07:18:01;;;;;;;3.87;2.07;;;0.00;99.90;;;;;;5030606;28;20187;-70
2023/02/26 07:20:32;;;;;;;2.70;1.87;;;0.00;99.90;;;;;;5041330;28;20230;-75
2023/02/26 07:23:00;;;;;;;2.47;1.80;;;0.00;99.90;;;;;;5024954;28;20210;-74
2023/02/26 07:25:27;;;;;;;2.43;1.80;;;0.10;99.90;;;;;;5038645;28;20230;-74
2023/02/26 07:27:55;;;;;;;2.97;1.77;;;0.10;99.90;;;;;;5030353;28;20216;-74
2023/02/26 07:30:21;;;;;;;2.23;1.80;;;0.20;99.90;;;;;;5030753;28;20203;-79
2023/02/26 07:32:48;;;;;;;2.90;1.70;;;0.20;99.90;;;;;;5009699;28;20294;-80
2023/02/26 07:35:15;;;;;;;1.77;1.50;;;0.20;99.90;;;;;;5014737;28;20657;-74
2023/02/26 07:37:42;;;;;;;2.43;1.70;;;0.30;99.90;;;;;;5015466;28;20254;-76
2023/02/26 07:40:10;;;;;;;2.30;1.67;;;0.20;99.90;;;;;;5014881;28;20231;-76
2023/02/26 07:42:37;;;;;;;1.73;1.57;;;0.30;99.90;;;;;;5014469;28;20297;-75
2023/02/26 07:45:04;;;;;;;1.93;1.50;;;0.40;99.90;;;;;;5029153;28;20205;-75
2023/02/26 07:47:31;;;;;;;2.80;1.80;;;0.40;99.90;;;;;;5033034;28;20661;-78
2023/02/26 07:49:58;;;;;;;2.30;1.63;;;0.50;99.90;;;;;;5029303;28;20203;-76
2023/02/26 07:52:25;;;;;;;2.17;1.50;;;0.50;99.90;;;;;;5029958;28;20285;-78
2023/02/26 07:54:52;;;;;;;2.93;1.70;;;0.60;99.90;;;;;;5026576;28;20209;-78
2023/02/26 07:57:19;;;;;;;2.60;1.50;;;0.70;99.90;;;;;;5029606;28;20223;-79
2023/02/26 07:59:46;;;;;;;2.07;1.60;;;0.80;99.90;;;;;;5028767;28;20231;-75
2023/02/26 08:02:13;;;;;;;1.77;1.60;;;0.60;99.90;;;;;;5030595;28;20247;-77
2023/02/26 08:04:41;;;;;;;2.13;1.70;;;0.70;99.90;;;;;;5036562;28;20198;-76
2023/02/26 08:07:09;;;;;;;2.30;1.70;;;0.70;99.90;;;;;;5032373;28;20200;-75
2023/02/26 08:09:36;;;;;;;2.10;1.70;;;0.80;99.90;;;;;;5031910;28;20585;-75
2023/02/26 08:12:06;;;;;;;2.60;1.80;;;0.70;99.90;;;;;;5031324;28;20202;-72
2023/02/26 08:14:32;;;;;;;2.27;1.50;;;0.70;99.90;;;;;;5024758;28;20661;-77
2023/02/26 08:16:59;;;;;;;2.57;1.80;;;0.70;99.90;;;;;;5031260;28;20191;-74
2023/02/26 08:19:27;;;;;;;2.17;1.70;;;0.80;99.90;;;;;;5027992;28;20326;-78
2023/02/26 08:21:54;;;;;;;1.87;1.60;;;0.70;99.90;;;;;;5028413;28;20315;-76
2023/02/26 08:24:21;;;;;;;2.73;1.77;;;0.90;99.90;;;;;;5029223;28;20782;-76
2023/02/26 08:26:48;;;;;;;2.63;1.63;;;0.80;99.90;;;;;;5036746;28;20195;-75
2023/02/26 08:29:22;;;;;;;2.70;1.73;;;0.80;99.90;;;;;;5046047;28;20187;-77
2023/02/26 08:31:50;;;;;;;2.47;1.90;;;0.80;99.90;;;;;;5053246;28;20182;-78
2023/02/26 08:34:20;;;;;;;3.00;2.00;;;0.80;99.90;;;;;;5053946;28;20199;-78
2023/02/26 08:36:47;;;;;;;2.43;1.80;;;0.80;99.90;;;;;;5053646;28;20656;-75
2023/02/26 08:39:14;;;;;;;2.77;1.70;;;0.90;99.90;;;;;;5049438;28;20705;-75
2023/02/26 08:41:41;;;;;;;1.97;1.60;;;1.10;99.90;;;;;;5031960;28;20266;-78
2023/02/26 08:44:08;;;;;;;2.30;1.70;;;1.10;99.90;;;;;;5051790;28;20183;-76
2023/02/26 08:46:34;;;;;;;1.93;1.53;;;1.20;99.90;;;;;;5045816;28;20198;-75
2023/02/26 08:49:02;;;;;;;1.87;1.50;;;1.10;99.90;;;;;;5053608;28;20286;-76
2023/02/26 08:51:29;;;;;;;2.47;1.63;;;1.20;99.90;;;;;;5031841;28;20198;-76
2023/02/26 08:53:56;;;;;;;3.13;2.13;;;1.10;99.90;;;;;;5026999;28;20608;-73
2023/02/26 08:56:23;;;;;;;1.90;1.53;;;1.00;99.90;;;;;;5033202;28;20210;-76
2023/02/26 08:58:50;;;;;;;1.93;1.40;;;0.90;99.90;;;;;;5034899;28;20191;-74
2023/02/26 09:01:17;;;;;;;2.50;1.50;;;0.90;99.90;;;;;;5034249;28;20223;-73
2023/02/26 09:03:44;;;;;;;1.83;1.63;;;1.00;99.90;;;;;;5016965;28;20242;-74
2023/02/26 09:06:11;;;;;;;3.17;1.50;;;0.90;99.90;;;;;;5040571;28;20187;-74
2023/02/26 09:08:38;;;;;;;2.43;1.70;;;1.00;99.90;;;;;;5054805;28;20300;-75
2023/02/26 09:11:05;;;;;;;1.63;1.43;;;1.10;99.90;;;;;;5049700;28;20282;-74
2023/02/26 09:13:32;;;;;;;1.60;1.50;;;1.10;99.90;;;;;;5032955;28;20653;-74
2023/02/26 09:15:59;;;;;;;1.57;1.37;;;0.90;99.90;;;;;;5032927;28;20195;-74
2023/02/26 09:18:26;;;;;;;1.60;1.50;;;1.00;99.90;;;;;;5034006;28;20191;-73
2023/02/26 09:20:53;;;;;;;2.87;1.73;;;1.00;99.90;;;;;;5032603;28;20223;-75
2023/02/26 09:23:24;;;;;;;1.90;1.40;;;0.90;99.90;;;;;;5032758;28;20271;-76
2023/02/26 09:25:53;;;;;;;2.60;1.88;;;0.90;99.90;;;;;;5036613;28;20988;-76
2023/02/26 09:28:21;;;;;;;1.77;1.60;;;0.90;99.90;;;;;;5032589;28;20295;-77
2023/02/26 09:30:51;;;;;;;1.63;1.43;;;1.00;99.90;;;;;;5032700;28;20208;-80
2023/02/26 09:33:19;;;;;;;1.27;1.17;;;1.10;99.90;;;;;;5032931;28;20227;-76
2023/02/26 09:35:50;;;;;;;1.60;1.50;;;1.20;99.90;;;;;;5031807;28;20195;-78
2023/02/26 09:38:19;;;;;;;1.40;1.30;;;1.30;99.90;;;;;;4994025;28;20428;-79
2023/02/26 09:40:53;;;;;;;2.27;1.30;;;1.30;99.90;;;;;;4992438;28;20583;-80
2023/02/26 09:43:33;;;;;;;1.70;1.30;;;1.20;99.90;;;;;;4976261;28;20201;-81
2023/02/26 09:46:10;;;;;;;1.47;1.37;;;1.10;99.90;;;;;;4976118;28;20696;-78
2023/02/26 09:48:38;;;;;;;1.85;1.55;;;1.10;99.90;;;;;;4991953;28;20508;-79
2023/02/26 09:51:11;;;;;;;2.03;1.50;;;1.10;99.90;;;;;;4991379;28;20438;-78
2023/02/26 09:53:40;;;;;;;1.77;1.50;;;1.10;99.90;;;;;;4975034;28;20538;-80
2023/02/26 09:56:20;;;;;;;1.57;1.30;;;1.00;99.90;;;;;;5006931;28;20233;-76
2023/02/26 09:58:48;;;;;;;1.47;1.37;;;1.10;99.90;;;;;;5033653;28;20206;-78
2023/02/26 10:01:25;;;;;;;1.70;1.30;;;1.20;99.90;;;;;;5032141;28;20243;-81
2023/02/26 10:04:14;;;;;;;1.50;1.30;;;1.10;99.90;;;;;;5033654;28;20199;-81
2023/02/26 10:06:46;;;;;;;1.97;1.40;;;1.10;99.90;;;;;;5048783;28;20191;-77
2023/02/26 10:09:30;;;;;;;1.73;1.50;;;1.20;99.90;;;;;;5052169;28;20233;-75
2023/02/26 10:12:07;;;;;;;2.27;1.60;;;1.20;99.90;;;;;;5051881;28;20195;-81
2023/02/26 10:14:39;;;;;;;2.80;1.50;;;1.20;99.90;;;;;;5035783;28;20194;-80
2023/02/26 10:17:20;;;;;;;2.03;1.40;;;1.20;99.90;;;;;;5053307;28;20281;-80
2023/02/26 10:19:53;;;;;;;2.70;1.60;;;1.20;99.90;;;;;;5040648;28;20227;-78
2023/02/26 10:22:28;;;;;;;2.87;1.80;;;1.20;99.90;;;;;;5032915;28;20661;-77
2023/02/26 10:25:06;;;;;;;1.83;1.50;;;1.20;99.90;;;;;;5033014;28;20270;-78
2023/02/26 10:27:52;;;;;;;3.40;2.00;;;1.20;99.90;;;;;;5031748;28;20226;-76
2023/02/26 10:30:51;;;;;;;3.60;1.90;;;1.10;99.90;;;;;;5031889;28;20267;-82
2023/02/26 10:33:35;;;;;;;2.60;1.70;;;1.10;99.90;;;;;;4952635;28;20213;-76
2023/02/26 10:36:20;;;;;;;2.50;1.87;;;1.20;99.90;;;;;;4936670;29;20217;-79
2023/02/26 10:38:50;;;;;;;3.20;1.93;;;1.30;99.90;;;;;;4935051;29;20212;-79
2023/02/26 10:41:22;;;;;;;2.87;2.20;;;1.30;99.90;;;;;;4952485;28;20595;-79
2023/02/26 10:44:11;;;;;;;4.33;2.10;;;1.30;99.90;;;;;;4951852;28;20656;-78
2023/02/26 10:46:51;;;;;;;3.57;2.10;;;1.20;99.90;;;;;;4951851;28;20667;-75
2023/02/26 10:49:29;;;;;;;3.90;2.63;;;1.00;99.90;;;;;;4935703;29;20448;-78
2023/02/26 10:52:00;;;;;;;2.90;2.10;;;1.00;99.90;;;;;;4952739;29;20226;-83
2023/02/26 10:54:34;;;;;;;2.43;1.90;;;1.00;99.90;;;;;;4936790;29;20194;-82
2023/02/26 10:57:03;;;;;;;3.00;2.20;;;1.10;99.90;;;;;;4895391;29;20259;-81
2023/02/26 10:59:30;;;;;;;4.77;2.20;;;1.10;99.90;;;;;;4895493;29;20204;-81
2023/02/26 11:01:58;;;;;;;3.33;2.20;;;1.00;99.90;;;;;;4895207;29;20322;-82
2023/02/26 11:04:26;;;;;;;3.40;2.40;;;1.10;99.90;;;;;;4896042;29;20619;-80
2023/02/26 11:06:58;;;;;;;3.93;2.13;;;1.00;99.90;;;;;;4898510;29;20200;-83
2023/02/26 11:09:31;;;;;;;4.17;2.37;;;0.90;99.90;;;;;;4936716;28;20605;-81
2023/02/26 11:12:03;;;;;;;4.17;2.53;;;0.90;99.90;;;;;;4978791;28;20280;-79
2023/02/26 11:14:33;;;;;;;4.43;2.57;;;1.00;99.90;;;;;;5005441;28;20192;-80
2023/02/26 11:17:06;;;;;;;3.70;2.30;;;0.90;99.90;;;;;;5034238;28;20210;-83
2023/02/26 11:19:41;;;;;;;4.67;2.23;;;0.90;99.90;;;;;;5033029;28;20632;-82
2023/02/26 11:22:13;;;;;;;3.17;2.03;;;0.80;99.90;;;;;;5028364;28;20198;-82
2023/02/26 11:24:45;;;;;;;3.33;2.10;;;0.90;99.90;;;;;;5037860;28;20282;-87
2023/02/26 11:27:20;;;;;;;4.10;2.20;;;1.00;99.90;;;;;;5041365;28;20294;-79
2023/02/26 11:29:52;;;;;;;2.77;1.97;;;1.10;99.90;;;;;;5035662;28;20587;-86
2023/02/26 11:32:23;;;;;;;2.67;1.70;;;1.20;99.90;;;;;;5028275;28;20198;-78
2023/02/26 11:34:53;;;;;;;2.53;1.70;;;1.30;99.90;;;;;;5036389;28;20629;-83
2023/02/26 11:37:26;;;;;;;3.30;1.60;;;1.40;99.90;;;;;;5053878;28;20205;-85
2023/02/26 11:40:22;;;;;;;3.20;1.90;;;1.70;99.90;;;;;;5043146;28;20191;-85
2023/02/26 11:42:56;;;;;;;2.47;1.60;;;1.70;99.90;;;;;;4997733;28;20205;-78
2023/02/26 11:45:24;;;;;;;2.07;1.37;;;1.70;99.90;;;;;;4978138;28;20315;-79
2023/02/26 11:48:13;;;;;;;2.33;1.50;;;1.60;99.90;;;;;;4987352;28;20205;-78
2023/02/26 11:50:45;;;;;;;1.40;1.30;;;1.40;99.90;;;;;;4958726;28;20216;-79
2023/02/26 11:53:36;;;;;;;1.60;1.40;;;1.40;99.90;;;;;;4958457;28;20247;-80
2023/02/26 11:56:14;;;;;;;1.70;1.40;;;1.50;99.90;;;;;;4967072;28;20686;-84
2023/02/26 11:58:45;;;;;;;2.43;1.30;;;1.60;99.90;;;;;;4974460;28;20217;-81
2023/02/26 12:01:15;;;;;;;1.90;1.50;;;1.60;99.90;;;;;;4974766;28;20225;-80
2023/02/26 12:03:46;;;;;;;1.37;1.23;;;1.70;99.90;;;;;;4958601;28;20651;-80
2023/02/26 12:06:23;;;;;;;2.07;1.50;;;1.80;99.90;;;;;;4957825;28;20587;-88
2023/02/26 12:08:52;;;;;;;1.40;1.20;;;1.80;99.90;;;;;;4960072;28;20201;-86
2023/02/26 12:11:29;;;;;;;2.30;1.40;;;1.80;99.90;;;;;;4958627;28;20205;-82
2023/02/26 12:14:14;;;;;;;2.77;1.30;;;1.80;99.90;;;;;;4980513;28;20245;-82
2023/02/26 12:16:56;;;;;;;2.40;1.50;;;1.70;99.90;;;;;;4962485;28;20793;-83
2023/02/26 12:20:01;;;;;;;1.70;1.40;;;1.70;99.90;;;;;;4978973;28;20627;-84
2023/02/26 12:22:53;;;;;;;1.90;1.40;;;1.50;99.90;;;;;;5034464;28;20198;-83
2023/02/26 12:25:51;;;;;;;2.30;1.40;;;1.60;99.90;;;;;;5018929;28;20204;-89
2023/02/26 12:28:26;;;;;;;1.97;1.40;;;1.60;99.90;;;;;;5039853;28;20647;-77
2023/02/26 12:31:18;;;;;;;1.97;1.60;;;1.60;99.90;;;;;;5035284;28;20202;-77
2023/02/26 12:34:15;;;;;;;2.23;1.60;;;1.50;99.90;;;;;;5034621;28;20241;-81
2023/02/26 12:37:01;;;;;;;2.50;1.80;;;1.50;99.90;;;;;;5045214;28;20194;-80
2023/02/26 12:39:39;;;;;;;2.83;1.90;;;1.50;99.90;;;;;;5035831;28;20201;-83
2023/02/26 12:42:24;;;;;;;3.97;2.20;;;1.50;99.90;;;;;;5034757;28;20242;-79
2023/02/26 12:45:11;;;;;;;2.57;1.80;;;1.60;99.90;;;;;;5036728;28;20281;-85
2023/02/26 12:47:54;;;;;;;4.23;2.03;;;1.70;99.90;;;;;;5036036;28;20222;-85
2023/02/26 12:50:54;;;;;;;3.13;1.63;;;1.80;99.90;;;;;;5042843;28;20192;-83
2023/02/26 12:53:38;;;;;;;2.90;1.90;;;1.80;99.90;;;;;;4982670;28;20207;-80
2023/02/26 12:56:30;;;;;;;4.07;2.10;;;2.00;99.90;;;;;;4979130;28;20201;-78
2023/02/26 12:59:14;;;;;;;3.07;1.90;;;2.00;99.90;;;;;;4977867;28;20224;-85
2023/02/26 13:02:26;;;;;;;2.70;1.83;;;2.00;99.90;;;;;;4978163;28;20251;-87
2023/02/26 13:05:25;;;;;;;3.00;2.10;;;2.10;99.90;;;;;;4917453;29;20228;-88
2023/02/26 13:08:04;;;;;;;2.83;1.83;;;2.10;99.90;;;;;;4917580;29;20251;-87
2023/02/26 13:11:09;;;;;;;3.73;1.80;;;2.00;99.90;;;;;;4920027;29;20246;-86
2023/02/26 13:13:55;;;;;;;3.70;2.00;;;2.00;99.90;;;;;;4918725;29;20749;-89
2023/02/26 13:16:25;;;;;;;3.03;1.90;;;2.00;99.90;;;;;;4915997;29;20712;-80
2023/02/26 13:19:30;;;;;;;2.37;1.50;;;2.00;99.90;;;;;;4899815;29;20226;-80
2023/02/26 13:22:03;;;;;;;2.20;1.40;;;2.00;99.90;;;;;;4839395;29;20264;-79
2023/02/26 13:24:42;;;;;;;2.10;1.30;;;1.90;99.90;;;;;;4825500;29;20210;-80
2023/02/26 13:27:11;;;;;;;1.93;1.30;;;1.90;99.90;;;;;;4981473;22;20230;-80
2023/02/26 13:30:08;;;;;;;2.90;1.20;;;1.90;99.90;;;;;;5051681;28;20202;-73
2023/02/26 13:32:38;;;;;;;1.53;1.10;;;2.00;99.90;;;;;;5051170;28;20198;-80